sensor_id;sensor_type;location;lat;lon;timestamp;pressure;altitude;pressure_sealevel;temperature;humidity
14800;BME280;7491;57.750;11.970;2023-04-25T00:00:22;74569.94;;;-142.11;100.00
14800;BME280;7491;57.750;11.970;2023-04-25T00:02:50;74584.19;;;-142.11;100.00
14800;BME280;7491;57.750;11.970;2023-04-25T00:05:17;74586.22;;;-142.11;100.00
14800;BME280;7491;57.750;11.970;2023-04-25T00:07:46;74584.19;;;-142.11;100.00
14800;BME280;7491;57.750;11.970;2023-04-25T00:10:13;74588.25;;;-142.11;100.00
14800;BME280;7491;57.750;11.970;2023-04-25T00:12:40;74588.25;;;-142.11;100.00
14800;BME280;7491;57.750;11.970;2023-04-25T00:15:07;74596.41;;;-142.11;100.00
14800;BME280;7491;57.750;11.970;2023-04-25T00:17:34;74598.44;;;-142.11;100.00
14800;BME280;7491;57.750;11.970;2023-04-25T00:20:04;74608.63;;;-142.11;100.00
14800;BME280;7491;57.750;11.970;2023-04-25T00:22:34;74616.78;;;-142.11;100.00
14800;BME280;7491;57.750;11.970;2023-04-25T00:25:04;74614.75;;;-142.11;100.00
14800;BME280;7491;57.750;11.970;2023-04-25T00:27:32;74626.97;;;-142.11;100.00
14800;BME280;7491;57.750;11.970;2023-04-25T00:29:59;74631.06;;;-142.11;100.00
14800;BME280;7491;57.750;11.970;2023-04-25T00:32:26;74618.84;;;-142.11;100.00
14800;BME280;7491;57.750;11.970;2023-04-25T00:34:53;74629.00;;;-142.11;100.00
14800;BME280;7491;57.750;11.970;2023-04-25T00:37:21;74616.78;;;-142.11;100.00
14800;BME280;7491;57.750;11.970;2023-04-25T00:39:47;74647.34;;;-142.11;100.00
14800;BME280;7491;57.750;11.970;2023-04-25T00:42:16;74633.09;;;-142.11;100.00
14800;BME280;7491;57.750;11.970;2023-04-25T00:44:43;74635.13;;;-142.11;100.00
14800;BME280;7491;57.750;11.970;2023-04-25T00:47:11;74641.25;;;-142.11;100.00
14800;BME280;7491;57.750;11.970;2023-04-25T00:49:38;74643.28;;;-142.11;100.00
14800;BME280;7491;57.750;11.970;2023-04-25T00:52:05;74653.47;;;-142.11;100.00
14800;BME280;7491;57.750;11.970;2023-04-25T00:54:32;74651.44;;;-142.11;100.00
14800;BME280;7491;57.750;11.970;2023-04-25T00:56:59;74655.50;;;-142.11;100.00
14800;BME280;7491;57.750;11.970;2023-04-25T00:59:28;74659.59;;;-142.11;100.00
14800;BME280;7491;57.750;11.970;2023-04-25T01:01:59;74671.81;;;-142.11;100.00
14800;BME280;7491;57.750;11.970;2023-04-25T01:04:27;74667.72;;;-142.11;100.00
14800;BME280;7491;57.750;11.970;2023-04-25T01:06:54;74682.00;;;-142.11;100.00
14800;BME280;7491;57.750;11.970;2023-04-25T01:09:22;74690.16;;;-142.11;100.00
14800;BME280;7491;57.750;11.970;2023-04-25T01:11:53;74667.72;;;-142.11;100.00
14800;BME280;7491;57.750;11.970;2023-04-25T01:14:20;74671.81;;;-142.11;100.00
14800;BME280;7491;57.750;11.970;2023-04-25T01:16:49;74669.78;;;-142.11;100.00
14800;BME280;7491;57.750;11.970;2023-04-25T01:19:16;74673.84;;;-142.11;100.00
14800;BME280;7491;57.750;11.970;2023-04-25T01:21:46;74677.91;;;-142.11;100.00
14800;BME280;7491;57.750;11.970;2023-04-25T01:24:13;74688.09;;;-142.11;100.00
14800;BME280;7491;57.750;11.970;2023-04-25T01:26:41;74686.06;;;-142.11;100.00
14800;BME280;7491;57.750;11.970;2023-04-25T01:29:15;74679.97;;;-142.11;100.00
14800;BME280;7491;57.750;11.970;2023-04-25T01:31:42;74677.91;;;-142.11;100.00
14800;BME280;7491;57.750;11.970;2023-04-25T01:34:09;74675.88;;;-142.11;100.00
14800;BME280;7491;57.750;11.970;2023-04-25T01:36:36;74686.06;;;-142.11;100.00
14800;BME280;7491;57.750;11.970;2023-04-25T01:39:05;74669.78;;;-142.11;100.00
14800;BME280;7491;57.750;11.970;2023-04-25T01:41:32;74657.53;;;-142.11;100.00
14800;BME280;7491;57.750;11.970;2023-04-25T01:43:59;74651.44;;;-142.11;100.00
14800;BME280;7491;57.750;11.970;2023-04-25T01:46:27;74659.59;;;-142.11;100.00
14800;BME280;7491;57.750;11.970;2023-04-25T01:48:54;74657.53;;;-142.11;100.00
14800;BME280;7491;57.750;11.970;2023-04-25T01:51:21;74663.66;;;-142.11;100.00
14800;BME280;7491;57.750;11.970;2023-04-25T01:53:48;74663.66;;;-142.11;100.00
14800;BME280;7491;57.750;11.970;2023-04-25T01:56:17;74675.88;;;-142.11;100.00
14800;BME280;7491;57.750;11.970;2023-04-25T01:58:45;74682.00;;;-142.11;100.00
14800;BME280;7491;57.750;11.970;2023-04-25T02:01:11;74671.81;;;-142.11;100.00
14800;BME280;7491;57.750;11.970;2023-04-25T02:03:39;74679.97;;;-142.11;100.00
14800;BME280;7491;57.750;11.970;2023-04-25T02:06:06;74679.97;;;-142.11;100.00
14800;BME280;7491;57.750;11.970;2023-04-25T02:08:33;74673.84;;;-142.11;100.00
14800;BME280;7491;57.750;11.970;2023-04-25T02:11:00;74692.19;;;-142.11;100.00
14800;BME280;7491;57.750;11.970;2023-04-25T02:13:29;74688.09;;;-142.11;100.00
14800;BME280;7491;57.750;11.970;2023-04-25T02:16:04;74688.09;;;-142.11;100.00
14800;BME280;7491;57.750;11.970;2023-04-25T02:18:33;74688.09;;;-142.11;100.00
14800;BME280;7491;57.750;11.970;2023-04-25T02:21:02;74669.78;;;-142.11;100.00
14800;BME280;7491;57.750;11.970;2023-04-25T02:23:29;74679.97;;;-142.11;100.00
14800;BME280;7491;57.750;11.970;2023-04-25T02:25:56;74700.34;;;-142.11;100.00
14800;BME280;7491;57.750;11.970;2023-04-25T02:28:23;74710.53;;;-142.11;100.00
14800;BME280;7491;57.750;11.970;2023-04-25T02:30:52;74694.22;;;-142.11;100.00
14800;BME280;7491;57.750;11.970;2023-04-25T02:33:19;74708.47;;;-142.11;100.00
14800;BME280;7491;57.750;11.970;2023-04-25T02:35:46;74704.41;;;-142.11;100.00
14800;BME280;7491;57.750;11.970;2023-04-25T02:38:13;74688.09;;;-142.11;100.00
14800;BME280;7491;57.750;11.970;2023-04-25T02:40:41;74696.25;;;-142.11;100.00
14800;BME280;7491;57.750;11.970;2023-04-25T02:43:10;74692.19;;;-142.11;100.00
14800;BME280;7491;57.750;11.970;2023-04-25T02:45:37;74686.06;;;-142.11;100.00
14800;BME280;7491;57.750;11.970;2023-04-25T02:48:14;74686.06;;;-142.11;100.00
14800;BME280;7491;57.750;11.970;2023-04-25T02:50:58;74686.06;;;-142.11;100.00
14800;BME280;7491;57.750;11.970;2023-04-25T02:53:50;74682.00;;;-142.11;100.00
14800;BME280;7491;57.750;11.970;2023-04-25T02:56:35;74684.03;;;-142.11;100.00
14800;BME280;7491;57.750;11.970;2023-04-25T05:22:08;74675.88;;;-142.11;100.00
14800;BME280;7491;57.750;11.970;2023-04-25T05:24:34;74679.97;;;-142.11;100.00
14800;BME280;7491;57.750;11.970;2023-04-25T05:27:01;74671.81;;;-142.11;100.00
14800;BME280;7491;57.750;11.970;2023-04-25T05:29:29;74659.59;;;-142.11;100.00
14800;BME280;7491;57.750;11.970;2023-04-25T05:31:56;74663.66;;;-142.11;100.00
14800;BME280;7491;57.750;11.970;2023-04-25T05:34:26;74649.41;;;-142.11;100.00
14800;BME280;7491;57.750;11.970;2023-04-25T05:36:53;74667.72;;;-142.11;100.00
14800;BME280;7491;57.750;11.970;2023-04-25T05:39:21;74669.78;;;-142.11;100.00
14800;BME280;7491;57.750;11.970;2023-04-25T05:41:48;74663.66;;;-142.11;100.00
14800;BME280;7491;57.750;11.970;2023-04-25T05:44:15;74661.63;;;-142.11;100.00
14800;BME280;7491;57.750;11.970;2023-04-25T05:46:42;74655.50;;;-142.11;100.00
14800;BME280;7491;57.750;11.970;2023-04-25T05:49:09;74649.41;;;-142.11;100.00
14800;BME280;7491;57.750;11.970;2023-04-25T05:51:37;74651.44;;;-142.11;100.00
14800;BME280;7491;57.750;11.970;2023-04-25T05:54:04;74657.53;;;-142.11;100.00
14800;BME280;7491;57.750;11.970;2023-04-25T05:56:31;74667.72;;;-142.11;100.00
14800;BME280;7491;57.750;11.970;2023-04-25T05:58:58;74682.00;;;-142.11;100.00
14800;BME280;7491;57.750;11.970;2023-04-25T06:01:25;74675.88;;;-142.11;100.00
14800;BME280;7491;57.750;11.970;2023-04-25T06:03:53;74663.66;;;-142.11;100.00
14800;BME280;7491;57.750;11.970;2023-04-25T06:06:19;74651.44;;;-142.11;100.00
14800;BME280;7491;57.750;11.970;2023-04-25T06:08:48;74653.47;;;-142.11;100.00
14800;BME280;7491;57.750;11.970;2023-04-25T06:11:24;74645.31;;;-142.11;100.00
14800;BME280;7491;57.750;11.970;2023-04-25T06:13:51;74649.41;;;-142.11;100.00
14800;BME280;7491;57.750;11.970;2023-04-25T06:16:18;74649.41;;;-142.11;100.00
14800;BME280;7491;57.750;11.970;2023-04-25T06:18:45;74643.28;;;-142.11;100.00
14800;BME280;7491;57.750;11.970;2023-04-25T06:21:12;74653.47;;;-142.11;100.00
14800;BME280;7491;57.750;11.970;2023-04-25T06:23:39;74649.41;;;-142.11;100.00
14800;BME280;7491;57.750;11.970;2023-04-25T06:26:07;74653.47;;;-142.11;100.00
14800;BME280;7491;57.750;11.970;2023-04-25T06:28:34;74639.22;;;-142.11;100.00
14800;BME280;7491;57.750;11.970;2023-04-25T06:31:00;74643.28;;;-142.11;100.00
14800;BME280;7491;57.750;11.970;2023-04-25T06:33:27;74643.28;;;-142.11;100.00
14800;BME280;7491;57.750;11.970;2023-04-25T06:35:54;74645.31;;;-142.11;100.00
14800;BME280;7491;57.750;11.970;2023-04-25T06:38:21;74647.34;;;-142.11;100.00
14800;BME280;7491;57.750;11.970;2023-04-25T06:40:48;74653.47;;;-142.11;100.00
14800;BME280;7491;57.750;11.970;2023-04-25T06:43:16;74657.53;;;-142.11;100.00
14800;BME280;7491;57.750;11.970;2023-04-25T06:45:43;74675.88;;;-142.11;100.00
14800;BME280;7491;57.750;11.970;2023-04-25T06:48:10;74682.00;;;-142.11;100.00
14800;BME280;7491;57.750;11.970;2023-04-25T06:50:44;74688.09;;;-142.11;100.00
14800;BME280;7491;57.750;11.970;2023-04-25T06:53:39;74702.38;;;-142.11;100.00
14800;BME280;7491;57.750;11.970;2023-04-25T07:24:05;74810.38;;;-142.11;100.00
14800;BME280;7491;57.750;11.970;2023-04-25T07:26:46;74818.53;;;-142.11;100.00
14800;BME280;7491;57.750;11.970;2023-04-25T07:29:13;74818.53;;;-142.11;100.00
14800;BME280;7491;57.750;11.970;2023-04-25T07:31:41;74816.47;;;-142.11;100.00
14800;BME280;7491;57.750;11.970;2023-04-25T07:37:15;74814.44;;;-142.11;100.00
14800;BME280;7491;57.750;11.970;2023-04-25T07:39:44;74806.28;;;-142.11;100.00
14800;BME280;7491;57.750;11.970;2023-04-25T07:45:03;74816.47;;;-142.11;100.00
14800;BME280;7491;57.750;11.970;2023-04-25T07:47:39;74828.72;;;-142.11;100.00
14800;BME280;7491;57.750;11.970;2023-04-25T07:50:07;74838.91;;;-142.11;100.00
14800;BME280;7491;57.750;11.970;2023-04-25T07:52:36;74849.09;;;-142.11;100.00
14800;BME280;7491;57.750;11.970;2023-04-25T07:55:12;74842.97;;;-142.11;100.00
14800;BME280;7491;57.750;11.970;2023-04-25T07:57:39;74847.03;;;-142.11;100.00
14800;BME280;7491;57.750;11.970;2023-04-25T08:00:07;74849.09;;;-142.11;100.00
14800;BME280;7491;57.750;11.970;2023-04-25T08:02:37;74859.28;;;-142.11;100.00
14800;BME280;7491;57.750;11.970;2023-04-25T08:05:04;74865.38;;;-142.11;100.00
14800;BME280;7491;57.750;11.970;2023-04-25T08:07:33;74865.38;;;-142.11;100.00
14800;BME280;7491;57.750;11.970;2023-04-25T08:10:02;74871.50;;;-142.11;100.00
14800;BME280;7491;57.750;11.970;2023-04-25T08:12:28;74881.69;;;-142.11;100.00
14800;BME280;7491;57.750;11.970;2023-04-25T08:14:55;74900.03;;;-142.11;100.00
14800;BME280;7491;57.750;11.970;2023-04-25T08:17:22;74891.88;;;-142.11;100.00
14800;BME280;7491;57.750;11.970;2023-04-25T08:19:49;74916.31;;;-142.11;100.00
14800;BME280;7491;57.750;11.970;2023-04-25T08:22:15;74928.56;;;-142.11;100.00
14800;BME280;7491;57.750;11.970;2023-04-25T08:24:42;74936.72;;;-142.11;100.00
14800;BME280;7491;57.750;11.970;2023-04-25T08:27:10;74938.75;;;-142.11;100.00
14800;BME280;7491;57.750;11.970;2023-04-25T08:29:37;74938.75;;;-142.11;100.00
14800;BME280;7491;57.750;11.970;2023-04-25T08:32:04;74948.94;;;-142.11;100.00
14800;BME280;7491;57.750;11.970;2023-04-25T08:34:31;74946.91;;;-142.11;100.00
14800;BME280;7491;57.750;11.970;2023-04-25T08:36:58;74950.97;;;-142.11;100.00
14800;BME280;7491;57.750;11.970;2023-04-25T08:39:24;74965.25;;;-142.11;100.00
14800;BME280;7491;57.750;11.970;2023-04-25T08:41:51;74961.16;;;-142.11;100.00
14800;BME280;7491;57.750;11.970;2023-04-25T08:44:20;74965.25;;;-142.11;100.00
14800;BME280;7491;57.750;11.970;2023-04-25T08:46:47;74965.25;;;-142.11;100.00
14800;BME280;7491;57.750;11.970;2023-04-25T08:49:16;74963.19;;;-142.11;100.00
14800;BME280;7491;57.750;11.970;2023-04-25T08:51:45;74957.09;;;-142.11;100.00
14800;BME280;7491;57.750;11.970;2023-04-25T08:54:14;74961.16;;;-142.11;100.00
14800;BME280;7491;57.750;11.970;2023-04-25T08:56:44;74969.31;;;-142.11;100.00
14800;BME280;7491;57.750;11.970;2023-04-25T08:59:12;74967.28;;;-142.11;100.00
14800;BME280;7491;57.750;11.970;2023-04-25T09:01:40;74971.34;;;-142.11;100.00
14800;BME280;7491;57.750;11.970;2023-04-25T09:04:07;74985.63;;;-142.11;100.00
14800;BME280;7491;57.750;11.970;2023-04-25T09:06:34;74985.63;;;-142.11;100.00
14800;BME280;7491;57.750;11.970;2023-04-25T09:09:02;74993.75;;;-142.11;100.00
14800;BME280;7491;57.750;11.970;2023-04-25T09:11:30;74985.63;;;-142.11;100.00
14800;BME280;7491;57.750;11.970;2023-04-25T09:14:10;74985.63;;;-142.11;100.00
14800;BME280;7491;57.750;11.970;2023-04-25T09:16:57;74957.09;;;-142.11;100.00
14800;BME280;7491;57.750;11.970;2023-04-25T09:19:25;74959.13;;;-142.11;100.00
14800;BME280;7491;57.750;11.970;2023-04-25T09:21:54;74967.28;;;-142.11;100.00
14800;BME280;7491;57.750;11.970;2023-04-25T09:24:30;74973.38;;;-142.11;100.00
14800;BME280;7491;57.750;11.970;2023-04-25T09:26:57;74987.66;;;-142.11;100.00
14800;BME280;7491;57.750;11.970;2023-04-25T09:29:29;74995.81;;;-142.11;100.00
14800;BME280;7491;57.750;11.970;2023-04-25T09:32:17;75006.00;;;-142.11;100.00
14800;BME280;7491;57.750;11.970;2023-04-25T09:34:45;75010.06;;;-142.11;100.00
14800;BME280;7491;57.750;11.970;2023-04-25T09:37:17;75034.53;;;-142.11;100.00
14800;BME280;7491;57.750;11.970;2023-04-25T09:39:44;75054.91;;;-142.11;100.00
14800;BME280;7491;57.750;11.970;2023-04-25T09:42:12;75048.78;;;-142.11;100.00
14800;BME280;7491;57.750;11.970;2023-04-25T09:44:42;75040.63;;;-142.11;100.00
14800;BME280;7491;57.750;11.970;2023-04-25T09:47:12;75040.63;;;-142.11;100.00
14800;BME280;7491;57.750;11.970;2023-04-25T09:49:41;75036.56;;;-142.11;100.00
14800;BME280;7491;57.750;11.970;2023-04-25T09:52:09;75054.91;;;-142.11;100.00
14800;BME280;7491;57.750;11.970;2023-04-25T09:54:36;75050.81;;;-142.11;100.00
14800;BME280;7491;57.750;11.970;2023-04-25T09:57:10;75034.53;;;-142.11;100.00
14800;BME280;7491;57.750;11.970;2023-04-25T09:59:39;75044.72;;;-142.11;100.00
14800;BME280;7491;57.750;11.970;2023-04-25T10:02:07;75046.75;;;-142.11;100.00
14800;BME280;7491;57.750;11.970;2023-04-25T10:04:38;75040.63;;;-142.11;100.00
14800;BME280;7491;57.750;11.970;2023-04-25T10:07:06;75034.53;;;-142.11;100.00
14800;BME280;7491;57.750;11.970;2023-04-25T10:09:36;75054.91;;;-142.11;100.00
14800;BME280;7491;57.750;11.970;2023-04-25T10:12:05;75063.06;;;-142.11;100.00
14800;BME280;7491;57.750;11.970;2023-04-25T10:14:32;75054.91;;;-142.11;100.00
14800;BME280;7491;57.750;11.970;2023-04-25T10:16:59;75036.56;;;-142.11;100.00
14800;BME280;7491;57.750;11.970;2023-04-25T10:19:27;75034.53;;;-142.11;100.00
14800;BME280;7491;57.750;11.970;2023-04-25T10:22:03;75026.38;;;-142.11;100.00
14800;BME280;7491;57.750;11.970;2023-04-25T10:24:31;75024.34;;;-142.11;100.00
14800;BME280;7491;57.750;11.970;2023-04-25T10:26:58;75040.63;;;-142.11;100.00
14800;BME280;7491;57.750;11.970;2023-04-25T10:29:26;75040.63;;;-142.11;100.00
14800;BME280;7491;57.750;11.970;2023-04-25T10:31:53;75044.72;;;-142.11;100.00
14800;BME280;7491;57.750;11.970;2023-04-25T10:34:24;75079.34;;;-142.11;100.00
14800;BME280;7491;57.750;11.970;2023-04-25T10:36:52;75073.25;;;-142.11;100.00
14800;BME280;7491;57.750;11.970;2023-04-25T10:39:25;75061.00;;;-142.11;100.00
14800;BME280;7491;57.750;11.970;2023-04-25T10:41:55;75065.09;;;-142.11;100.00
14800;BME280;7491;57.750;11.970;2023-04-25T10:44:26;75056.94;;;-142.11;100.00
14800;BME280;7491;57.750;11.970;2023-04-25T10:46:55;75065.09;;;-142.11;100.00
14800;BME280;7491;57.750;11.970;2023-04-25T10:49:29;75079.34;;;-142.11;100.00
14800;BME280;7491;57.750;11.970;2023-04-25T10:52:15;75075.28;;;-142.11;100.00
14800;BME280;7491;57.750;11.970;2023-04-25T10:54:46;75091.59;;;-142.11;100.00
14800;BME280;7491;57.750;11.970;2023-04-25T10:57:27;75075.28;;;-142.11;100.00
14800;BME280;7491;57.750;11.970;2023-04-25T10:59:58;75087.50;;;-142.11;100.00
14800;BME280;7491;57.750;11.970;2023-04-25T11:02:26;75105.84;;;-142.11;100.00
14800;BME280;7491;57.750;11.970;2023-04-25T11:04:53;75093.63;;;-142.11;100.00
14800;BME280;7491;57.750;11.970;2023-04-25T11:07:28;75089.53;;;-142.11;100.00
14800;BME280;7491;57.750;11.970;2023-04-25T11:10:01;75095.66;;;-142.11;100.00
14800;BME280;7491;57.750;11.970;2023-04-25T11:12:30;75120.13;;;-142.11;100.00
14800;BME280;7491;57.750;11.970;2023-04-25T11:15:01;75120.13;;;-142.11;100.00
14800;BME280;7491;57.750;11.970;2023-04-25T11:17:29;75126.22;;;-142.11;100.00
14800;BME280;7491;57.750;11.970;2023-04-25T11:19:56;75132.34;;;-142.11;100.00
14800;BME280;7491;57.750;11.970;2023-04-25T11:22:23;75156.78;;;-142.11;100.00
14800;BME280;7491;57.750;11.970;2023-04-25T11:24:50;75154.75;;;-142.11;100.00
14800;BME280;7491;57.750;11.970;2023-04-25T11:27:18;75136.41;;;-142.11;100.00
14800;BME280;7491;57.750;11.970;2023-04-25T11:29:45;75162.91;;;-142.11;100.00
14800;BME280;7491;57.750;11.970;2023-04-25T11:32:14;75156.78;;;-142.11;100.00
14800;BME280;7491;57.750;11.970;2023-04-25T11:34:43;75140.50;;;-142.11;100.00
14800;BME280;7491;57.750;11.970;2023-04-25T11:37:10;75140.50;;;-142.11;100.00
14800;BME280;7491;57.750;11.970;2023-04-25T11:39:42;75146.59;;;-142.11;100.00
14800;BME280;7491;57.750;11.970;2023-04-25T11:42:09;75146.59;;;-142.11;100.00
14800;BME280;7491;57.750;11.970;2023-04-25T11:44:37;75122.16;;;-142.11;100.00
14800;BME280;7491;57.750;11.970;2023-04-25T11:47:04;75111.97;;;-142.11;100.00
14800;BME280;7491;57.750;11.970;2023-04-25T11:49:31;75105.84;;;-142.11;100.00
14800;BME280;7491;57.750;11.970;2023-04-25T11:51:58;75101.78;;;-142.11;100.00
14800;BME280;7491;57.750;11.970;2023-04-25T11:54:25;75103.81;;;-142.11;100.00
14800;BME280;7491;57.750;11.970;2023-04-25T11:56:51;75093.63;;;-142.11;100.00
14800;BME280;7491;57.750;11.970;2023-04-25T11:59:23;75126.22;;;-142.11;100.00
14800;BME280;7491;57.750;11.970;2023-04-25T12:02:01;75140.50;;;-142.11;100.00
14800;BME280;7491;57.750;11.970;2023-04-25T12:04:30;75132.34;;;-142.11;100.00
14800;BME280;7491;57.750;11.970;2023-04-25T12:06:56;75140.50;;;-142.11;100.00
14800;BME280;7491;57.750;11.970;2023-04-25T12:09:29;75158.84;;;-142.11;100.00
14800;BME280;7491;57.750;11.970;2023-04-25T12:11:57;75177.16;;;-142.11;100.00
14800;BME280;7491;57.750;11.970;2023-04-25T12:14:26;75173.09;;;-142.11;100.00
14800;BME280;7491;57.750;11.970;2023-04-25T12:16:55;75169.03;;;-142.11;100.00
14800;BME280;7491;57.750;11.970;2023-04-25T12:19:24;75181.25;;;-142.11;100.00
14800;BME280;7491;57.750;11.970;2023-04-25T12:21:51;75207.75;;;-142.11;100.00
14800;BME280;7491;57.750;11.970;2023-04-25T12:24:22;75219.97;;;-142.11;100.00
14800;BME280;7491;57.750;11.970;2023-04-25T12:26:51;75213.84;;;-142.11;100.00
14800;BME280;7491;57.750;11.970;2023-04-25T12:29:19;75205.72;;;-142.11;100.00
14800;BME280;7491;57.750;11.970;2023-04-25T12:31:46;75215.91;;;-142.11;100.00
14800;BME280;7491;57.750;11.970;2023-04-25T12:34:13;75224.03;;;-142.11;100.00
14800;BME280;7491;57.750;11.970;2023-04-25T12:36:41;75219.97;;;-142.11;100.00
14800;BME280;7491;57.750;11.970;2023-04-25T12:39:07;75219.97;;;-142.11;100.00
14800;BME280;7491;57.750;11.970;2023-04-25T12:41:35;75236.28;;;-142.11;100.00
14800;BME280;7491;57.750;11.970;2023-04-25T12:44:03;75244.44;;;-142.11;100.00
14800;BME280;7491;57.750;11.970;2023-04-25T12:46:29;75240.34;;;-142.11;100.00
14800;BME280;7491;57.750;11.970;2023-04-25T12:48:56;75250.53;;;-142.11;100.00
14800;BME280;7491;57.750;11.970;2023-04-25T12:51:23;75256.66;;;-142.11;100.00
14800;BME280;7491;57.750;11.970;2023-04-25T12:53:52;75246.47;;;-142.11;100.00
14800;BME280;7491;57.750;11.970;2023-04-25T12:56:19;75228.13;;;-142.11;100.00
14800;BME280;7491;57.750;11.970;2023-04-25T12:58:46;75224.03;;;-142.11;100.00
14800;BME280;7491;57.750;11.970;2023-04-25T13:01:13;75230.16;;;-142.11;100.00
14800;BME280;7491;57.750;11.970;2023-04-25T13:03:41;75226.09;;;-142.11;100.00
14800;BME280;7491;57.750;11.970;2023-04-25T13:06:07;75240.34;;;-142.11;100.00
14800;BME280;7491;57.750;11.970;2023-04-25T13:08:34;75238.31;;;-142.11;100.00
14800;BME280;7491;57.750;11.970;2023-04-25T13:11:03;75236.28;;;-142.11;100.00
14800;BME280;7491;57.750;11.970;2023-04-25T13:13:30;75246.47;;;-142.11;100.00
14800;BME280;7491;57.750;11.970;2023-04-25T13:15:59;75228.13;;;-142.11;100.00
14800;BME280;7491;57.750;11.970;2023-04-25T13:18:27;75234.22;;;-142.11;100.00
14800;BME280;7491;57.750;11.970;2023-04-25T13:20:54;75213.84;;;-142.11;100.00
14800;BME280;7491;57.750;11.970;2023-04-25T13:23:21;75238.31;;;-142.11;100.00
14800;BME280;7491;57.750;11.970;2023-04-25T13:25:48;75232.19;;;-142.11;100.00
14800;BME280;7491;57.750;11.970;2023-04-25T13:28:17;75232.19;;;-142.11;100.00
14800;BME280;7491;57.750;11.970;2023-04-25T13:30:43;75254.63;;;-142.11;100.00
14800;BME280;7491;57.750;11.970;2023-04-25T13:33:10;75250.53;;;-142.11;100.00
14800;BME280;7491;57.750;11.970;2023-04-25T13:35:38;75250.53;;;-142.11;100.00
14800;BME280;7491;57.750;11.970;2023-04-25T13:38:05;75252.56;;;-142.11;100.00
14800;BME280;7491;57.750;11.970;2023-04-25T13:40:34;75254.63;;;-142.11;100.00
14800;BME280;7491;57.750;11.970;2023-04-25T13:43:01;75250.53;;;-142.11;100.00
14800;BME280;7491;57.750;11.970;2023-04-25T13:45:29;75238.31;;;-142.11;100.00
14800;BME280;7491;57.750;11.970;2023-04-25T13:47:56;75244.44;;;-142.11;100.00
14800;BME280;7491;57.750;11.970;2023-04-25T13:50:23;75234.22;;;-142.11;100.00
14800;BME280;7491;57.750;11.970;2023-04-25T13:52:50;75226.09;;;-142.11;100.00
14800;BME280;7491;57.750;11.970;2023-04-25T13:55:17;75205.72;;;-142.11;100.00
14800;BME280;7491;57.750;11.970;2023-04-25T13:57:44;75201.63;;;-142.11;100.00
14800;BME280;7491;57.750;11.970;2023-04-25T14:00:12;75199.59;;;-142.11;100.00
14800;BME280;7491;57.750;11.970;2023-04-25T14:02:40;75211.81;;;-142.11;100.00
14800;BME280;7491;57.750;11.970;2023-04-25T14:05:07;75222.00;;;-142.11;100.00
14800;BME280;7491;57.750;11.970;2023-04-25T14:07:34;75236.28;;;-142.11;100.00
14800;BME280;7491;57.750;11.970;2023-04-25T14:10:02;75236.28;;;-142.11;100.00
14800;BME280;7491;57.750;11.970;2023-04-25T14:12:30;75236.28;;;-142.11;100.00
14800;BME280;7491;57.750;11.970;2023-04-25T14:14:56;75234.22;;;-142.11;100.00
14800;BME280;7491;57.750;11.970;2023-04-25T14:17:23;75246.47;;;-142.11;100.00
14800;BME280;7491;57.750;11.970;2023-04-25T14:20:12;75260.72;;;-142.11;100.00
14800;BME280;7491;57.750;11.970;2023-04-25T14:22:39;75264.81;;;-142.11;100.00
14800;BME280;7491;57.750;11.970;2023-04-25T14:25:09;75266.84;;;-142.11;100.00
14800;BME280;7491;57.750;11.970;2023-04-25T14:27:36;75303.53;;;-142.11;100.00
14800;BME280;7491;57.750;11.970;2023-04-25T14:30:03;75303.53;;;-142.11;100.00
14800;BME280;7491;57.750;11.970;2023-04-25T14:32:30;75305.56;;;-142.11;100.00
14800;BME280;7491;57.750;11.970;2023-04-25T14:34:58;75336.13;;;-142.11;100.00
14800;BME280;7491;57.750;11.970;2023-04-25T14:37:25;75315.75;;;-142.11;100.00
14800;BME280;7491;57.750;11.970;2023-04-25T14:39:52;75301.50;;;-142.11;100.00
14800;BME280;7491;57.750;11.970;2023-04-25T14:42:19;75291.31;;;-142.11;100.00
14800;BME280;7491;57.750;11.970;2023-04-25T14:44:47;75299.44;;;-142.11;100.00
14800;BME280;7491;57.750;11.970;2023-04-25T14:47:14;75295.38;;;-142.11;100.00
14800;BME280;7491;57.750;11.970;2023-04-25T14:49:41;75303.53;;;-142.11;100.00
14800;BME280;7491;57.750;11.970;2023-04-25T14:52:09;75287.22;;;-142.11;100.00
14800;BME280;7491;57.750;11.970;2023-04-25T14:54:36;75281.09;;;-142.11;100.00
14800;BME280;7491;57.750;11.970;2023-04-25T14:57:03;75295.38;;;-142.11;100.00
14800;BME280;7491;57.750;11.970;2023-04-25T14:59:29;75317.78;;;-142.11;100.00
14800;BME280;7491;57.750;11.970;2023-04-25T15:01:56;75317.78;;;-142.11;100.00
14800;BME280;7491;57.750;11.970;2023-04-25T15:04:23;75305.56;;;-142.11;100.00
14800;BME280;7491;57.750;11.970;2023-04-25T15:06:50;75297.41;;;-142.11;100.00
14800;BME280;7491;57.750;11.970;2023-04-25T15:09:18;75285.19;;;-142.11;100.00
14800;BME280;7491;57.750;11.970;2023-04-25T15:11:45;75303.53;;;-142.11;100.00
14800;BME280;7491;57.750;11.970;2023-04-25T15:14:12;75305.56;;;-142.11;100.00
14800;BME280;7491;57.750;11.970;2023-04-25T15:16:39;75313.72;;;-142.11;100.00
14800;BME280;7491;57.750;11.970;2023-04-25T15:19:06;75319.81;;;-142.11;100.00
14800;BME280;7491;57.750;11.970;2023-04-25T15:21:33;75317.78;;;-142.11;100.00
14800;BME280;7491;57.750;11.970;2023-04-25T15:24:00;75311.69;;;-142.11;100.00
14800;BME280;7491;57.750;11.970;2023-04-25T15:26:31;75309.63;;;-142.11;100.00
14800;BME280;7491;57.750;11.970;2023-04-25T15:29:10;75321.88;;;-142.11;100.00
14800;BME280;7491;57.750;11.970;2023-04-25T15:31:37;75305.56;;;-142.11;100.00
14800;BME280;7491;57.750;11.970;2023-04-25T15:34:06;75297.41;;;-142.11;100.00